Shelton, Connecticut
Current Conditions -  °F | °C
As of 9:52 AM on Wednesday 22 Oct 2014 (Local Time) from KBDR Reporting Station
Light Rain Light Rain  
Wind Chill: 55°   Ceiling: 8500
Heat Index: 55°   Visibility: 10mi
Dew Point: 50°   Wind: 18mph
Humidity: 83%   Direction: 30°NNE
Pressure: 29.94"   Gusts: 25mph
Location:  41.32°N, 73.11°W
Report Text: KBDR 221352Z 03016G22KT 10SM -RA SCT017 SCT048 OVC085 13/10 A2994 RMK AO2 RAB12 CIG 029 R29 SE SLP140 P0000 T01280100
Loading
Personal Weather Stations






























Interactive Weather Map
Tropical Storm Tracking
New forecast layout! Learn more

10-Day Weather Forecast

Advertisements
Track Severe Weather on mobile